Terminal Aerodrome Forecast
Issued by NWS Hastings, NE

Home | Current Version | Previous Version | Text Only | Print | Product List | Glossary On
Versions: 1 2 3 4 5 6 7 8 9 10 11 12 13 14 15 16 17 18
683
FTUS45 KGID 010520
TAFEAR
TAF
KEAR 010520Z 0106/0206 34018G27KT 6SM -RASN SCT007 OVC015
      TEMPO 0106/0110 OVC007
     FM011100 31017G24KT P6SM VCSH BKN035
     FM011300 31017G24KT P6SM BKN070
     FM020200 29010KT P6SM FEW130
      AMD LTD TO CLD VIS AND WIND=

USA.gov is the U.S. government's official web portal to all federal, state and local government web resources and services.